createdAt,value
2023-03-15T07:04:56.833Z,1015.38
2023-03-15T07:05:56.722Z,1015.38
2023-03-15T07:06:56.656Z,1015.39
2023-03-15T07:07:56.665Z,1015.42
2023-03-15T07:08:56.649Z,1015.40
2023-03-15T07:09:56.728Z,1015.45
2023-03-15T07:10:56.682Z,1015.43
2023-03-15T07:11:56.597Z,1015.40
2023-03-15T07:12:56.634Z,1015.43
2023-03-15T07:13:56.563Z,1015.44
2023-03-15T07:14:56.549Z,1015.48
2023-03-15T07:15:56.708Z,1015.48
2023-03-15T07:16:56.510Z,1015.47
2023-03-15T07:17:56.502Z,1015.45
2023-03-15T07:18:56.597Z,1015.48
2023-03-15T07:19:57.024Z,1015.50
2023-03-15T07:20:56.460Z,1015.51
2023-03-15T07:21:56.462Z,1015.52
2023-03-15T07:22:56.438Z,1015.54
2023-03-15T07:23:56.436Z,1015.58
2023-03-15T07:24:56.405Z,1015.58
2023-03-15T07:25:56.640Z,1015.58
2023-03-15T07:26:56.568Z,1015.62
2023-03-15T07:27:56.438Z,1015.60
2023-03-15T07:28:56.436Z,1015.60
2023-03-15T07:29:56.466Z,1015.64
2023-03-15T07:30:56.419Z,1015.64
2023-03-15T07:31:56.438Z,1015.66
2023-03-15T07:32:56.635Z,1015.69
2023-03-15T07:33:56.461Z,1015.73
2023-03-15T07:34:56.291Z,1015.71
2023-03-15T07:35:56.397Z,1015.71
2023-03-15T07:36:56.290Z,1015.74
2023-03-15T07:37:56.397Z,1015.76
2023-03-15T07:38:56.265Z,1015.75
2023-03-15T07:39:56.255Z,1015.76
2023-03-15T07:40:56.224Z,1015.75
2023-03-15T07:41:56.258Z,1015.76
2023-03-15T07:42:56.237Z,1015.80
2023-03-15T07:43:58.393Z,1015.83
2023-03-15T07:44:56.191Z,1015.83
2023-03-15T07:45:56.247Z,1015.82
2023-03-15T07:46:56.286Z,1015.90
2023-03-15T07:47:56.654Z,1015.93
2023-03-15T07:48:56.179Z,1015.94
2023-03-15T07:49:56.091Z,1015.98
2023-03-15T07:50:56.076Z,1016.04
2023-03-15T07:52:55.302Z,1016.11
2023-03-15T07:53:55.274Z,1016.11
2023-03-15T07:54:55.250Z,1016.12
2023-03-15T07:55:55.270Z,1016.15
2023-03-15T07:56:55.225Z,1016.17
2023-03-15T07:57:55.209Z,1016.19
2023-03-15T07:58:55.205Z,1016.18
2023-03-15T07:59:55.197Z,1016.27
2023-03-15T08:00:55.168Z,1016.24
2023-03-15T08:01:55.221Z,1016.28
2023-03-15T08:02:55.185Z,1016.30
2023-03-15T08:03:55.137Z,1016.30
2023-03-15T08:04:55.116Z,1016.33
2023-03-15T08:05:56.106Z,1016.35
2023-03-15T08:06:55.111Z,1016.36
2023-03-15T08:07:55.101Z,1016.39
2023-03-15T08:08:55.095Z,1016.41
2023-03-15T08:09:55.062Z,1016.43
2023-03-15T08:10:55.048Z,1016.42
2023-03-15T08:11:55.037Z,1016.48
2023-03-15T08:12:55.016Z,1016.43
2023-03-15T08:13:55.006Z,1016.45
2023-03-15T08:14:55.021Z,1016.46
2023-03-15T08:15:55.078Z,1016.46
2023-03-15T08:16:55.043Z,1016.48
2023-03-15T08:17:54.987Z,1016.50
2023-03-15T08:18:54.948Z,1016.48
2023-03-15T08:19:54.977Z,1016.53
2023-03-15T08:20:54.919Z,1016.52
2023-03-15T08:21:54.908Z,1016.53
2023-03-15T08:22:54.897Z,1016.51
2023-03-15T08:23:54.909Z,1016.60
2023-03-15T08:24:54.897Z,1016.57
2023-03-15T08:25:54.884Z,1016.56
2023-03-15T08:26:54.859Z,1016.54
2023-03-15T08:27:54.842Z,1016.52
2023-03-15T08:28:54.844Z,1016.58
2023-03-15T08:29:54.854Z,1016.59
2023-03-15T08:30:54.801Z,1016.60
2023-03-15T08:31:54.880Z,1016.64
2023-03-15T08:32:54.832Z,1016.64
2023-03-15T08:33:54.784Z,1016.59
2023-03-15T08:34:54.800Z,1016.63
2023-03-15T08:35:54.828Z,1016.66
2023-03-15T08:36:54.811Z,1016.67
2023-03-15T08:37:54.719Z,1016.69
2023-03-15T08:38:54.704Z,1016.68
2023-03-15T08:39:54.700Z,1016.68
2023-03-15T08:40:54.704Z,1016.71
2023-03-15T08:41:54.672Z,1016.75
2023-03-15T08:42:54.674Z,1016.77
2023-03-15T08:43:54.662Z,1016.80
2023-03-15T08:44:54.660Z,1016.78
2023-03-15T08:46:01.072Z,1016.75
2023-03-15T08:46:55.768Z,1016.78
2023-03-15T08:47:54.606Z,1016.77
2023-03-15T08:48:54.582Z,1016.77
2023-03-15T08:49:54.585Z,1016.76
2023-03-15T08:50:54.565Z,1016.83
2023-03-15T08:51:54.550Z,1016.81
2023-03-15T08:52:54.574Z,1016.80
2023-03-15T08:53:54.546Z,1016.83
2023-03-15T08:54:54.511Z,1016.85
2023-03-15T08:55:54.506Z,1016.97
2023-03-15T08:56:54.484Z,1016.96
2023-03-15T08:57:54.509Z,1016.97
2023-03-15T08:58:54.460Z,1017.01
2023-03-15T08:59:54.466Z,1017.05
2023-03-15T09:00:54.432Z,1017.05
2023-03-15T09:01:54.443Z,1017.06
2023-03-15T09:02:54.413Z,1017.04
2023-03-15T09:03:54.456Z,1017.07
2023-03-15T09:04:54.414Z,1017.13
2023-03-15T09:05:54.371Z,1017.12
2023-03-15T09:06:55.072Z,1017.14
2023-03-15T09:07:54.354Z,1017.11
2023-03-15T09:08:54.351Z,1017.12
2023-03-15T09:09:54.370Z,1017.14
2023-03-15T09:10:54.361Z,1017.13
2023-03-15T09:11:54.317Z,1017.12
2023-03-15T09:12:54.291Z,1017.12
2023-03-15T09:13:54.313Z,1017.10
2023-03-15T09:14:54.296Z,1017.14
2023-03-15T09:15:54.261Z,1017.12
2023-03-15T09:16:54.304Z,1017.13
2023-03-15T09:17:54.281Z,1017.12
2023-03-15T09:18:54.216Z,1017.16
2023-03-15T09:19:54.222Z,1017.19
2023-03-15T09:20:54.216Z,1017.21
2023-03-15T09:21:54.218Z,1017.21
2023-03-15T09:22:54.188Z,1017.28
2023-03-15T09:23:54.231Z,1017.26
2023-03-15T09:24:54.176Z,1017.23
2023-03-15T09:25:54.147Z,1017.31
2023-03-15T09:26:54.129Z,1017.28
2023-03-15T09:27:54.136Z,1017.29
2023-03-15T09:28:54.123Z,1017.31
2023-03-15T09:29:54.140Z,1017.35
2023-03-15T09:30:54.212Z,1017.35
2023-03-15T09:31:54.073Z,1017.38
2023-03-15T09:32:54.080Z,1017.36
2023-03-15T09:33:54.046Z,1017.39
2023-03-15T09:34:54.044Z,1017.42
2023-03-15T09:35:54.069Z,1017.43
2023-03-15T09:36:54.015Z,1017.44
2023-03-15T09:37:54.023Z,1017.48
2023-03-15T09:38:54.018Z,1017.50
2023-03-15T09:39:53.986Z,1017.44
2023-03-15T09:40:53.976Z,1017.49
2023-03-15T09:41:53.965Z,1017.52
2023-03-15T09:42:53.950Z,1017.53
2023-03-15T09:43:53.959Z,1017.48
2023-03-15T09:44:53.917Z,1017.52
2023-03-15T09:45:53.985Z,1017.48
2023-03-15T09:46:54.018Z,1017.48
2023-03-15T09:47:53.885Z,1017.50
2023-03-15T09:48:53.923Z,1017.47
2023-03-15T09:49:53.858Z,1017.48
2023-03-15T09:50:53.848Z,1017.46
2023-03-15T09:51:53.833Z,1017.41
2023-03-15T09:52:53.840Z,1017.43
2023-03-15T09:53:53.832Z,1017.35
2023-03-15T09:54:53.819Z,1017.36
2023-03-15T09:55:53.783Z,1017.36
2023-03-15T09:56:53.756Z,1017.35
2023-03-15T09:57:53.858Z,1017.35
2023-03-15T09:58:53.751Z,1017.41
2023-03-15T09:59:53.726Z,1017.40
2023-03-15T10:00:53.726Z,1017.38
2023-03-15T10:01:53.775Z,1017.34
2023-03-15T10:02:53.685Z,1017.31
2023-03-15T10:03:53.822Z,1017.32
2023-03-15T10:04:53.662Z,1017.31
2023-03-15T10:05:53.657Z,1017.32
2023-03-15T10:06:53.645Z,1017.37
2023-03-15T10:07:53.641Z,1017.35
2023-03-15T10:08:53.604Z,1017.35
2023-03-15T10:09:53.613Z,1017.35
2023-03-15T10:10:53.605Z,1017.37
2023-03-15T10:11:53.572Z,1017.33
2023-03-15T10:12:53.546Z,1017.43
2023-03-15T10:13:53.548Z,1017.39
2023-03-15T10:14:53.546Z,1017.34
2023-03-15T10:15:53.625Z,1017.33
2023-03-15T10:16:53.538Z,1017.35
2023-03-15T10:17:53.493Z,1017.32
2023-03-15T10:18:53.498Z,1017.32
2023-03-15T10:19:53.463Z,1017.29
2023-03-15T10:20:53.467Z,1017.32
2023-03-15T10:21:53.475Z,1017.29
2023-03-15T10:22:53.411Z,1017.40
2023-03-15T10:23:53.408Z,1017.40
2023-03-15T10:24:53.394Z,1017.38
2023-03-15T10:25:53.371Z,1017.45
2023-03-15T10:26:53.449Z,1017.45
2023-03-15T10:27:53.346Z,1017.43
2023-03-15T10:28:53.331Z,1017.45
2023-03-15T10:29:53.329Z,1017.45
2023-03-15T10:30:53.319Z,1017.43
2023-03-15T10:31:53.377Z,1017.40
2023-03-15T10:32:53.313Z,1017.46
2023-03-15T10:33:53.283Z,1017.42
2023-03-15T10:34:53.240Z,1017.43
2023-03-15T10:35:58.625Z,1017.46
2023-03-15T10:36:54.295Z,1017.40
2023-03-15T10:37:53.220Z,1017.43
2023-03-15T10:38:53.197Z,1017.41
2023-03-15T10:39:53.167Z,1017.43
2023-03-15T10:40:53.196Z,1017.47
2023-03-15T10:41:53.234Z,1017.41
2023-03-15T10:42:53.148Z,1017.44
2023-03-15T10:43:53.128Z,1017.43
2023-03-15T10:44:53.197Z,1017.41
2023-03-15T10:45:53.263Z,1017.43
2023-03-15T10:46:53.173Z,1017.45
2023-03-15T10:48:00.255Z,1017.47
2023-03-15T10:48:54.125Z,1017.51
2023-03-15T10:49:53.039Z,1017.43
2023-03-15T10:50:53.031Z,1017.45
2023-03-15T10:51:53.228Z,1017.43
2023-03-15T10:52:53.016Z,1017.45
2023-03-15T10:53:53.018Z,1017.47
2023-03-15T10:55:02.362Z,1017.46
2023-03-15T10:55:53.966Z,1017.46
2023-03-15T10:56:52.946Z,1017.45
2023-03-15T10:57:52.965Z,1017.51
2023-03-15T10:59:09.531Z,1017.51
2023-03-15T10:59:53.907Z,1017.55
2023-03-15T11:00:52.936Z,1017.53
2023-03-15T11:01:53.064Z,1017.55
2023-03-15T11:02:52.894Z,1017.59
2023-03-15T11:03:52.851Z,1017.52
2023-03-15T11:04:52.823Z,1017.52
2023-03-15T11:05:52.829Z,1017.55
2023-03-15T11:06:52.798Z,1017.50
2023-03-15T11:07:52.842Z,1017.47
2023-03-15T11:08:52.773Z,1017.55
2023-03-15T11:09:52.768Z,1017.52
2023-03-15T11:10:52.783Z,1017.52
2023-03-15T11:11:52.752Z,1017.49
2023-03-15T11:12:52.734Z,1017.52
2023-03-15T11:13:52.724Z,1017.53
2023-03-15T11:14:52.685Z,1017.55
2023-03-15T11:15:52.747Z,1017.57
2023-03-15T11:16:52.667Z,1017.57
2023-03-15T11:17:52.637Z,1017.58
2023-03-15T11:18:52.723Z,1017.58
2023-03-15T11:19:52.643Z,1017.61
2023-03-15T11:20:52.593Z,1017.61
2023-03-15T11:21:52.595Z,1017.61
2023-03-15T11:22:52.699Z,1017.66
2023-03-15T11:23:52.579Z,1017.64
2023-03-15T11:24:52.618Z,1017.70
2023-03-15T11:25:52.556Z,1017.65
2023-03-15T11:26:52.549Z,1017.67
2023-03-15T11:27:52.556Z,1017.66
2023-03-15T11:28:52.507Z,1017.70
2023-03-15T11:29:52.484Z,1017.74
2023-03-15T11:30:52.469Z,1017.69
2023-03-15T11:31:52.481Z,1017.72
2023-03-15T11:32:52.456Z,1017.75
2023-03-15T11:33:52.448Z,1017.74
2023-03-15T11:34:52.454Z,1017.76
2023-03-15T11:35:52.425Z,1017.78
2023-03-15T11:37:05.358Z,1017.77
2023-03-15T11:37:56.715Z,1017.75
2023-03-15T11:38:53.356Z,1017.77
2023-03-15T11:39:58.776Z,1017.78
2023-03-15T11:40:53.321Z,1017.80
2023-03-15T11:41:52.322Z,1017.79
2023-03-15T11:42:52.334Z,1017.76
2023-03-15T11:43:52.337Z,1017.76
2023-03-15T11:44:52.277Z,1017.78
2023-03-15T11:45:52.340Z,1017.75
2023-03-15T11:46:52.255Z,1017.84
2023-03-15T11:47:52.350Z,1017.87
2023-03-15T11:48:52.221Z,1017.85
2023-03-15T11:49:52.221Z,1017.85
2023-03-15T11:50:52.227Z,1017.82
2023-03-15T11:51:52.218Z,1017.88
2023-03-15T11:52:52.213Z,1017.84
2023-03-15T11:53:52.174Z,1017.82
2023-03-15T11:54:52.141Z,1017.87
2023-03-15T11:55:52.156Z,1017.87
2023-03-15T11:56:52.109Z,1017.82
2023-03-15T11:57:52.144Z,1017.74
2023-03-15T11:58:52.077Z,1017.78
2023-03-15T11:59:52.142Z,1017.79
2023-03-15T12:00:52.084Z,1017.80
2023-03-15T12:01:52.151Z,1017.73
2023-03-15T12:02:52.050Z,1017.76
2023-03-15T12:03:52.061Z,1017.78
2023-03-15T12:04:52.000Z,1017.80
2023-03-15T12:05:52.004Z,1017.78
2023-03-15T12:06:51.965Z,1017.79
2023-03-15T12:07:51.961Z,1017.80
2023-03-15T12:08:52.008Z,1017.81
2023-03-15T12:09:51.968Z,1017.84
2023-03-15T12:10:51.953Z,1017.78
2023-03-15T12:11:51.912Z,1017.75
2023-03-15T12:12:51.905Z,1017.78
2023-03-15T12:13:51.918Z,1017.76
2023-03-15T12:14:51.852Z,1017.81
2023-03-15T12:15:51.877Z,1017.79
2023-03-15T12:16:51.871Z,1017.79
2023-03-15T12:17:51.811Z,1017.76
2023-03-15T12:18:51.843Z,1017.80
2023-03-15T12:19:51.781Z,1017.80
2023-03-15T12:20:51.800Z,1017.78
2023-03-15T12:21:51.816Z,1017.83
2023-03-15T12:22:51.775Z,1017.79
2023-03-15T12:23:51.739Z,1017.82
2023-03-15T12:24:51.781Z,1017.84
2023-03-15T12:25:55.037Z,1017.86
2023-03-15T12:26:51.704Z,1017.80
2023-03-15T12:27:51.691Z,1017.78
2023-03-15T12:28:51.691Z,1017.81
2023-03-15T12:29:51.694Z,1017.76
2023-03-15T12:30:51.693Z,1017.80
2023-03-15T12:31:51.667Z,1017.78
2023-03-15T12:32:51.737Z,1017.74
2023-03-15T12:33:51.571Z,1017.78
2023-03-15T12:34:52.060Z,1017.71
2023-03-15T12:35:51.628Z,1017.69
2023-03-15T12:36:51.546Z,1017.72
2023-03-15T12:37:51.523Z,1017.71
2023-03-15T12:38:51.558Z,1017.67
2023-03-15T12:39:51.514Z,1017.64
2023-03-15T12:40:51.497Z,1017.62
2023-03-15T12:41:51.517Z,1017.66
2023-03-15T12:42:51.542Z,1017.60
2023-03-15T12:43:51.443Z,1017.66
2023-03-15T12:44:51.443Z,1017.62
2023-03-15T12:45:51.480Z,1017.64
2023-03-15T12:46:51.420Z,1017.67
2023-03-15T12:47:51.399Z,1017.64
2023-03-15T12:48:51.409Z,1017.65
2023-03-15T12:49:51.381Z,1017.63
2023-03-15T12:50:51.370Z,1017.67
2023-03-15T12:51:51.341Z,1017.64
2023-03-15T12:52:51.338Z,1017.66
2023-03-15T12:53:51.334Z,1017.66
2023-03-15T12:54:51.285Z,1017.65
2023-03-15T12:55:54.056Z,1017.65
2023-03-15T12:56:52.344Z,1017.71
2023-03-15T12:57:51.276Z,1017.68
2023-03-15T12:58:51.274Z,1017.75
2023-03-15T12:59:51.226Z,1017.70
2023-03-15T13:00:51.309Z,1017.73
2023-03-15T13:01:51.261Z,1017.70
2023-03-15T13:02:51.282Z,1017.70
2023-03-15T13:03:51.158Z,1017.67
2023-03-15T13:04:51.178Z,1017.67
2023-03-15T13:06:02.836Z,1017.66
2023-03-15T13:06:52.230Z,1017.67
2023-03-15T13:07:51.692Z,1017.71
2023-03-15T13:08:51.129Z,1017.69
2023-03-15T13:09:51.138Z,1017.72
2023-03-15T13:10:51.086Z,1017.72
2023-03-15T13:11:51.071Z,1017.69
2023-03-15T13:12:51.067Z,1017.72
2023-03-15T13:13:51.069Z,1017.71
2023-03-15T13:14:51.051Z,1017.72
2023-03-15T13:15:51.026Z,1017.69
2023-03-15T13:16:51.020Z,1017.68
2023-03-15T13:17:51.012Z,1017.70
2023-03-15T13:18:51.026Z,1017.67
2023-03-15T13:19:50.941Z,1017.68
2023-03-15T13:20:50.926Z,1017.64
2023-03-15T13:21:50.911Z,1017.57
2023-03-15T13:22:55.498Z,1017.53
2023-03-15T13:23:50.885Z,1017.58
2023-03-15T13:24:50.883Z,1017.58
2023-03-15T13:25:50.870Z,1017.54
2023-03-15T13:26:50.846Z,1017.56
2023-03-15T13:27:50.908Z,1017.52
2023-03-15T13:28:50.844Z,1017.55
2023-03-15T13:29:50.825Z,1017.54
2023-03-15T13:30:50.841Z,1017.57
2023-03-15T13:31:50.768Z,1017.54
2023-03-15T13:32:50.912Z,1017.52
2023-03-15T13:33:50.773Z,1017.57
2023-03-15T13:34:50.831Z,1017.60
2023-03-15T13:35:50.803Z,1017.60
2023-03-15T13:36:50.737Z,1017.56
2023-03-15T13:37:50.719Z,1017.58
2023-03-15T13:38:50.718Z,1017.56
2023-03-15T13:39:50.699Z,1017.59
2023-03-15T13:40:50.665Z,1017.52
2023-03-15T13:41:50.656Z,1017.48
2023-03-15T13:42:50.638Z,1017.56
2023-03-15T13:43:50.665Z,1017.55
2023-03-15T13:44:50.606Z,1017.60
2023-03-15T13:45:50.591Z,1017.57
2023-03-15T13:46:50.632Z,1017.58
2023-03-15T13:47:50.614Z,1017.57
2023-03-15T13:48:50.559Z,1017.54
2023-03-15T13:49:50.537Z,1017.54
2023-03-15T13:50:50.563Z,1017.56
2023-03-15T13:51:50.514Z,1017.53
2023-03-15T13:52:58.030Z,1017.49
2023-03-15T13:53:50.558Z,1017.54
2023-03-15T13:54:50.528Z,1017.56
2023-03-15T13:55:50.526Z,1017.57
2023-03-15T13:56:50.580Z,1017.54
2023-03-15T13:57:50.529Z,1017.56
2023-03-15T13:58:50.484Z,1017.58
2023-03-15T13:59:50.443Z,1017.56
2023-03-15T14:00:57.963Z,1017.53
2023-03-15T14:01:50.434Z,1017.56
2023-03-15T14:02:50.429Z,1017.58
2023-03-15T14:03:50.409Z,1017.63
2023-03-15T14:04:50.335Z,1017.57
2023-03-15T14:05:50.330Z,1017.55
2023-03-15T14:06:58.864Z,1017.64
2023-03-15T14:07:59.080Z,1017.61
2023-03-15T14:08:50.281Z,1017.59
2023-03-15T14:09:50.334Z,1017.60
2023-03-15T14:10:50.277Z,1017.62
2023-03-15T14:11:50.255Z,1017.67
2023-03-15T14:12:50.283Z,1017.70
2023-03-15T14:13:50.244Z,1017.63
2023-03-15T14:14:50.249Z,1017.62
2023-03-15T14:15:50.306Z,1017.61
2023-03-15T14:17:04.235Z,1017.63
2023-03-15T14:17:51.158Z,1017.59
2023-03-15T14:18:50.158Z,1017.63
2023-03-15T14:19:50.135Z,1017.60
2023-03-15T14:20:50.144Z,1017.64
2023-03-15T14:21:50.133Z,1017.61
2023-03-15T14:22:52.161Z,1017.65
2023-03-15T14:23:50.131Z,1017.68
2023-03-15T14:24:50.085Z,1017.66
2023-03-15T14:25:50.065Z,1017.69
2023-03-15T14:26:50.104Z,1017.68
2023-03-15T14:27:50.037Z,1017.68
2023-03-15T14:28:50.048Z,1017.66
2023-03-15T14:29:50.098Z,1017.66
2023-03-15T14:30:50.025Z,1017.62
2023-03-15T14:31:50.121Z,1017.66
2023-03-15T14:32:50.089Z,1017.58
2023-03-15T14:33:49.999Z,1017.62
2023-03-15T14:34:49.971Z,1017.62
2023-03-15T14:35:49.984Z,1017.68
2023-03-15T14:36:49.944Z,1017.67
2023-03-15T14:37:49.901Z,1017.70
2023-03-15T14:38:49.929Z,1017.64
2023-03-15T14:39:49.880Z,1017.72
2023-03-15T14:40:49.866Z,1017.71
2023-03-15T14:41:49.861Z,1017.76
2023-03-15T14:42:49.868Z,1017.75
2023-03-15T14:43:49.860Z,1017.71
2023-03-15T14:44:49.830Z,1017.76
2023-03-15T14:45:49.859Z,1017.74
2023-03-15T14:46:49.802Z,1017.70
2023-03-15T14:47:56.674Z,1017.72
2023-03-15T14:48:50.788Z,1017.76
2023-03-15T14:49:49.775Z,1017.79
2023-03-15T14:50:49.803Z,1017.75
2023-03-15T14:51:49.754Z,1017.79
2023-03-15T14:52:49.692Z,1017.77
2023-03-15T14:53:49.693Z,1017.82
2023-03-15T14:54:49.674Z,1017.86
2023-03-15T14:55:49.675Z,1017.84
2023-03-15T14:56:49.692Z,1017.86
2023-03-15T14:57:49.644Z,1017.89
2023-03-15T14:58:49.671Z,1017.92
2023-03-15T14:59:49.653Z,1017.85
2023-03-15T15:00:49.718Z,1017.90
2023-03-15T15:01:49.612Z,1017.89
2023-03-15T15:02:49.578Z,1017.94
2023-03-15T15:03:49.562Z,1017.93
2023-03-15T15:04:49.594Z,1017.99
2023-03-15T15:05:49.544Z,1017.92
2023-03-15T15:06:49.549Z,1017.95
2023-03-15T15:07:49.494Z,1017.96
2023-03-15T15:08:49.529Z,1017.96
2023-03-15T15:09:49.539Z,1017.94
2023-03-15T15:10:49.460Z,1017.94
2023-03-15T15:11:49.462Z,1017.95
2023-03-15T15:12:56.164Z,1017.92
2023-03-15T15:13:50.440Z,1017.93
2023-03-15T15:14:49.439Z,1017.88
2023-03-15T15:15:55.641Z,1017.91
2023-03-15T15:16:50.487Z,1017.91
2023-03-15T15:17:49.391Z,1017.96
2023-03-15T15:18:49.371Z,1017.95
2023-03-15T15:19:49.346Z,1017.95
2023-03-15T15:20:49.351Z,1017.93
2023-03-15T15:21:49.360Z,1017.95
2023-03-15T15:22:49.354Z,1017.97
2023-03-15T15:23:58.538Z,1017.94
2023-03-15T15:24:51.462Z,1017.96
2023-03-15T15:25:49.316Z,1017.95
2023-03-15T15:26:49.253Z,1017.91
2023-03-15T15:27:49.246Z,1017.95
2023-03-15T15:28:49.263Z,1017.92
2023-03-15T15:29:49.216Z,1017.90
2023-03-15T15:30:49.911Z,1017.91
2023-03-15T15:31:49.296Z,1017.94
2023-03-15T15:32:49.406Z,1017.96
2023-03-15T15:33:49.257Z,1017.94
2023-03-15T15:34:49.192Z,1017.92
2023-03-15T15:35:49.181Z,1017.89
2023-03-15T15:36:49.187Z,1017.91
2023-03-15T15:37:49.113Z,1017.86
2023-03-15T15:38:49.111Z,1017.87
2023-03-15T15:39:49.075Z,1017.88
2023-03-15T15:40:49.064Z,1017.88
2023-03-15T15:41:49.061Z,1017.88
2023-03-15T15:42:49.033Z,1017.90
2023-03-15T15:43:49.038Z,1017.86
2023-03-15T15:44:49.033Z,1017.89
2023-03-15T15:45:49.026Z,1017.91
2023-03-15T15:46:48.976Z,1017.85
2023-03-15T15:47:48.952Z,1017.83
2023-03-15T15:48:48.941Z,1017.83
2023-03-15T15:49:48.984Z,1017.82
2023-03-15T15:50:48.925Z,1017.82
2023-03-15T15:51:48.916Z,1017.81
2023-03-15T15:52:48.899Z,1017.83
2023-03-15T15:53:48.884Z,1017.84
2023-03-15T15:54:48.892Z,1017.81
2023-03-15T15:55:48.926Z,1017.82
2023-03-15T15:56:48.846Z,1017.87
2023-03-15T15:57:48.826Z,1017.82
2023-03-15T15:58:48.827Z,1017.81
2023-03-15T15:59:48.799Z,1017.79
2023-03-15T16:00:48.820Z,1017.77
2023-03-15T16:01:59.675Z,1017.80
2023-03-15T16:02:49.850Z,1017.78
2023-03-15T16:03:48.741Z,1017.83
2023-03-15T16:04:48.773Z,1017.81
2023-03-15T16:05:48.775Z,1017.79
2023-03-15T16:06:48.723Z,1017.83
2023-03-15T16:07:48.701Z,1017.82
2023-03-15T16:08:48.751Z,1017.83
2023-03-15T16:09:48.677Z,1017.84
2023-03-15T16:10:48.686Z,1017.86
2023-03-15T16:11:48.661Z,1017.85
2023-03-15T16:12:48.736Z,1017.84
2023-03-15T16:13:48.636Z,1017.81
2023-03-15T16:14:48.622Z,1017.80
2023-03-15T16:15:48.686Z,1017.78
2023-03-15T16:16:48.600Z,1017.82
2023-03-15T16:17:48.561Z,1017.82
2023-03-15T16:18:48.631Z,1017.78
2023-03-15T16:19:48.539Z,1017.79
2023-03-15T16:20:48.523Z,1017.78
2023-03-15T16:21:48.519Z,1017.75
2023-03-15T16:22:48.660Z,1017.75
2023-03-15T16:23:48.466Z,1017.72
2023-03-15T16:24:48.481Z,1017.73
2023-03-15T16:25:48.462Z,1017.71
2023-03-15T16:26:48.555Z,1017.73
2023-03-15T16:27:48.474Z,1017.75
2023-03-15T16:28:48.453Z,1017.79
2023-03-15T16:29:48.396Z,1017.79
2023-03-15T16:30:48.435Z,1017.80
2023-03-15T16:31:48.346Z,1017.77
2023-03-15T16:32:48.394Z,1017.76
2023-03-15T16:33:48.322Z,1017.80
2023-03-15T16:34:48.309Z,1017.84
2023-03-15T16:35:48.326Z,1017.84
2023-03-15T16:36:49.542Z,1017.79
2023-03-15T16:37:48.361Z,1017.88
2023-03-15T16:38:48.338Z,1017.94
2023-03-15T16:39:48.285Z,1017.91
2023-03-15T16:40:48.280Z,1017.97
2023-03-15T16:41:48.251Z,1017.97
2023-03-15T16:42:48.258Z,1017.96
2023-03-15T16:43:49.469Z,1017.95
2023-03-15T16:44:48.183Z,1017.90
2023-03-15T16:45:48.283Z,1017.91
2023-03-15T16:46:48.423Z,1017.91
2023-03-15T16:47:48.162Z,1017.95
2023-03-15T16:48:48.185Z,1017.92
2023-03-15T16:49:48.101Z,1017.96
2023-03-15T16:50:48.229Z,1017.97
2023-03-15T16:51:48.133Z,1017.97
2023-03-15T16:52:48.105Z,1018.01
2023-03-15T16:53:48.077Z,1018.02
2023-03-15T16:54:48.961Z,1018.02
2023-03-15T16:55:48.045Z,1018.07
2023-03-15T16:56:48.021Z,1018.02
2023-03-15T16:57:48.046Z,1018.06
2023-03-15T16:58:47.998Z,1018.04
2023-03-15T16:59:47.964Z,1018.11
2023-03-15T17:00:48.372Z,1018.10
2023-03-15T17:01:48.015Z,1018.09
2023-03-15T17:02:47.892Z,1018.09
2023-03-15T17:03:47.904Z,1018.15
2023-03-15T17:04:47.956Z,1018.09
2023-03-15T17:05:47.944Z,1018.12
2023-03-15T17:06:47.925Z,1018.12
2023-03-15T17:07:47.918Z,1018.12
2023-03-15T17:08:47.843Z,1018.15
2023-03-15T17:09:47.852Z,1018.19
2023-03-15T17:10:47.842Z,1018.21
2023-03-15T17:11:47.844Z,1018.21
2023-03-15T17:12:47.881Z,1018.22
2023-03-15T17:13:47.881Z,1018.22
2023-03-15T17:14:47.782Z,1018.25
2023-03-15T17:15:48.062Z,1018.20
2023-03-15T17:16:47.861Z,1018.21
2023-03-15T17:17:47.785Z,1018.24
2023-03-15T17:18:47.760Z,1018.23
2023-03-15T17:19:47.953Z,1018.25
2023-03-15T17:20:47.894Z,1018.25
2023-03-15T17:21:47.855Z,1018.27
2023-03-15T17:22:47.900Z,1018.23
2023-03-15T17:23:47.855Z,1018.27
2023-03-15T17:24:47.958Z,1018.25
2023-03-15T17:25:47.901Z,1018.25
2023-03-15T17:26:47.771Z,1018.25
2023-03-15T17:27:47.844Z,1018.26
2023-03-15T17:28:47.670Z,1018.26
2023-03-15T17:29:47.660Z,1018.27
2023-03-15T17:30:49.804Z,1018.33
2023-03-15T17:31:47.715Z,1018.33
2023-03-15T17:32:47.840Z,1018.34
2023-03-15T17:33:47.601Z,1018.40
2023-03-15T17:34:47.705Z,1018.36
2023-03-15T17:35:47.642Z,1018.42
2023-03-15T17:36:47.534Z,1018.41
2023-03-15T17:37:47.526Z,1018.44
2023-03-15T17:38:47.797Z,1018.47
2023-03-15T17:39:47.484Z,1018.47
2023-03-15T17:40:47.805Z,1018.48
2023-03-15T17:41:47.457Z,1018.51
2023-03-15T17:42:47.514Z,1018.51
2023-03-15T17:43:47.491Z,1018.50
2023-03-15T17:44:47.476Z,1018.49
2023-03-15T17:45:47.421Z,1018.48
2023-03-15T17:46:47.511Z,1018.49
2023-03-15T17:47:47.391Z,1018.49
2023-03-15T17:48:47.445Z,1018.48
2023-03-15T17:49:47.516Z,1018.50
2023-03-15T17:50:47.494Z,1018.50
2023-03-15T17:51:47.486Z,1018.48
2023-03-15T17:52:47.577Z,1018.49
2023-03-15T17:53:47.752Z,1018.54
2023-03-15T17:54:47.501Z,1018.56
2023-03-15T17:55:47.461Z,1018.57
2023-03-15T17:56:47.574Z,1018.58
2023-03-15T17:57:54.803Z,1018.61
2023-03-15T17:58:48.458Z,1018.63
2023-03-15T17:59:47.391Z,1018.59
2023-03-15T18:00:47.320Z,1018.62
2023-03-15T18:01:47.224Z,1018.63
2023-03-15T18:02:54.998Z,1018.60
2023-03-15T18:03:48.409Z,1018.58
2023-03-15T18:04:47.652Z,1018.59
2023-03-15T18:05:47.339Z,1018.55
2023-03-15T18:06:47.307Z,1018.59
2023-03-15T18:07:58.285Z,1018.62
2023-03-15T18:08:48.168Z,1018.63
2023-03-15T18:09:47.292Z,1018.68
2023-03-15T18:10:47.198Z,1018.64
2023-03-15T18:11:47.209Z,1018.63
2023-03-15T18:12:47.194Z,1018.68
2023-03-15T18:13:47.170Z,1018.68
2023-03-15T18:14:47.105Z,1018.70
2023-03-15T18:15:47.232Z,1018.63
2023-03-15T18:16:47.149Z,1018.66
2023-03-15T18:17:47.113Z,1018.67
2023-03-15T18:18:47.071Z,1018.69
2023-03-15T18:19:47.105Z,1018.71
2023-03-15T18:20:47.197Z,1018.74
2023-03-15T18:21:47.037Z,1018.71
2023-03-15T18:22:47.185Z,1018.73
2023-03-15T18:23:46.972Z,1018.72
2023-03-15T18:24:47.288Z,1018.75
2023-03-15T18:25:46.942Z,1018.77
2023-03-15T18:26:46.987Z,1018.77
2023-03-15T18:27:46.918Z,1018.78
2023-03-15T18:28:46.994Z,1018.82
2023-03-15T18:29:47.014Z,1018.80
2023-03-15T18:30:47.044Z,1018.77
2023-03-15T18:31:47.238Z,1018.85
2023-03-15T18:32:47.300Z,1018.85
2023-03-15T18:33:46.904Z,1018.86
2023-03-15T18:34:46.935Z,1018.84
2023-03-15T18:35:47.338Z,1018.83
2023-03-15T18:36:46.845Z,1018.84
2023-03-15T18:37:46.812Z,1018.89
2023-03-15T18:38:46.948Z,1018.87
2023-03-15T18:39:46.835Z,1018.92
2023-03-15T18:40:46.819Z,1018.93
2023-03-15T18:41:46.802Z,1018.91
2023-03-15T18:42:46.869Z,1018.91
2023-03-15T18:43:46.854Z,1018.91
2023-03-15T18:44:46.704Z,1018.94
2023-03-15T18:45:46.708Z,1018.92
2023-03-15T18:46:46.726Z,1018.93
2023-03-15T18:47:46.661Z,1018.94
2023-03-15T18:48:46.822Z,1018.96
2023-03-15T18:49:46.993Z,1018.93
2023-03-15T18:50:46.804Z,1018.97
2023-03-15T18:51:46.711Z,1019.02
2023-03-15T18:52:46.752Z,1019.03
2023-03-15T18:53:46.646Z,1019.03
2023-03-15T18:54:46.550Z,1019.03
2023-03-15T18:55:46.569Z,1019.05
2023-03-15T18:56:46.641Z,1019.03
2023-03-15T18:57:46.609Z,1019.04
2023-03-15T18:58:46.476Z,1018.98
2023-03-15T18:59:46.469Z,1019.02
2023-03-15T19:00:46.452Z,1018.99
2023-03-15T19:01:46.563Z,1019.02
2023-03-15T19:02:46.529Z,1018.98
2023-03-15T19:03:46.475Z,1018.97
2023-03-15T19:04:46.386Z,1018.98
2023-03-15T19:05:46.414Z,1019.00
2023-03-15T19:06:46.349Z,1018.97
2023-03-15T19:07:47.772Z,1018.97
2023-03-15T19:08:46.339Z,1018.98
2023-03-15T19:09:46.333Z,1019.01
2023-03-15T19:10:46.305Z,1019.03